Little Rock, AR

04:28 CDT le 05 juillet 2015 (GMT -0500)
SOMA | | Change Station
CLOSE
Current Station
Stations météorologiques personnelles
Location: Little Rock, AR
Altitude: 325 ft
Stations météo à proximité

Alt. 325 ft 34.73 °N, 92.27 °W | Updated 6 minutes ago

Mostly Cloudy
Nuageux
69.1 ° F
Paraît 69.1 ° F
N
0.0
Vent Variable Vent de SSE

Aujourd'hui
Haut(e) -- | Bas -- ° F
--% Risque de précip.
Hier
Haut(e) -- | Bas -- ° F
Precip. -- pouce
6:01 AM 8:25 PM
Lune gibbeuse décroissante, 86% visible
Pression 30.03 pouce
Visibilité 7.0 Miles terrestres
Nuages Nuageux 600 ft
Point de rosée 68 ° F
Humidité 98%
Précipitations 0.00 pouce
Profondeur de la couche neigeuse Non disponible.
UV 0 sur 12
Pollen 3.00 sur 12
Qualité de l'air Non disponible.
Flu Activity Non disponible.
METAR KLIT 050853Z 14003KT 7SM BKN006 22/20 A3003 RMK AO2 SLP167 T02220200 50001

More Conditions Fewer Conditions

Pression 30.03 pouce
Visibilité 7.0 Miles terrestres
Nuages Nuageux 600 ft
Point de rosée 68 ° F
Humidité 98%
Précipitations 0.00 pouce
Profondeur de la couche neigeuse Non disponible.
UV 0 sur 12
Pollen 3.00 sur 12
Qualité de l'air Non disponible.
Flu Activity Non disponible.
METAR KLIT 050853Z 14003KT 7SM BKN006 22/20 A3003 RMK AO2 SLP167 T02220200 50001

More Conditions Fewer Conditions

10-Day Weather Forecast

×

Almanac

Astronomie

Jul. 05, 2015 Lever Coucher
Temps réel
Crépuscule civil
Crépuscule nautique
Crépuscule astronomique
Lune
Durée de lumière visible
Longueur du jour
Tomorrow will be .
, % of the Moon is Illuminated

Extrêmes aujourd'hui

State Highs State Lows

Community

WunderPhotos

Upload Photos

1,835,218 Photos téléchargées !

WunderBlogs® & News

Nearby

Qualité de l'air

  Qualité de l'air Indice de la qualité de l'air Polluant
Not available.

Épaisseur de neige

Station Depth Altitude

Activité sismique

Ville Distance Mag. Time & Date
Minimum magnitude displayed is 2.5.

Températures des eaux côtières

Lieu Température

Stations

Stations météo à proximité

Emplacement de la station Température Refroidissement éolien Point de rosée Humidité Vent Precip. Alt. Mise à jour Type